createdAt,value
2019-01-31T00:04:02.732Z,89.36
2019-01-31T00:09:30.273Z,89.27
2019-01-31T00:14:54.395Z,88.93
2019-01-31T00:20:39.672Z,88.94
2019-01-31T00:26:10.744Z,88.56
2019-01-31T00:32:00.691Z,89.07
2019-01-31T00:37:26.848Z,89.38
2019-01-31T00:42:54.196Z,89.43
2019-01-31T00:48:39.386Z,89.23
2019-01-31T00:54:09.491Z,89.12
2019-01-31T00:59:56.807Z,88.93
2019-01-31T01:05:18.687Z,88.62
2019-01-31T01:10:30.870Z,88.57
2019-01-31T01:16:11.066Z,88.83
2019-01-31T01:21:41.064Z,89.42
2019-01-31T01:27:09.299Z,89.60
2019-01-31T01:32:51.460Z,89.33
2019-01-31T01:38:28.098Z,88.59
2019-01-31T01:43:45.845Z,89.13
2019-01-31T01:49:22.848Z,90.06
2019-01-31T01:54:52.316Z,90.79
2019-01-31T02:00:40.773Z,90.94
2019-01-31T02:06:22.956Z,91.55
2019-01-31T02:11:43.501Z,91.91
2019-01-31T02:17:15.273Z,92.51
2019-01-31T02:22:35.284Z,91.66
2019-01-31T02:28:31.278Z,91.53
2019-01-31T02:33:57.177Z,91.66
2019-01-31T02:39:24.352Z,92.88
2019-01-31T02:45:20.218Z,93.71
2019-01-31T02:50:38.790Z,94.13
2019-01-31T02:56:05.738Z,94.80
2019-01-31T03:01:23.943Z,95.67
2019-01-31T03:07:03.922Z,96.20
2019-01-31T03:12:22.515Z,96.10
2019-01-31T03:17:52.551Z,96.31
2019-01-31T03:23:26.752Z,96.87
2019-01-31T03:28:53.988Z,96.84
2019-01-31T03:34:33.493Z,97.73
2019-01-31T03:40:07.506Z,98.01
2019-01-31T03:45:43.275Z,97.88
2019-01-31T03:51:12.208Z,97.18
2019-01-31T03:57:04.187Z,97.10
2019-01-31T04:02:42.674Z,97.15
2019-01-31T04:07:46.730Z,97.34
2019-01-31T04:12:50.864Z,97.23
2019-01-31T04:17:55.292Z,96.98
2019-01-31T04:22:59.321Z,97.10
2019-01-31T04:28:03.377Z,97.00
2019-01-31T04:33:07.425Z,96.72
2019-01-31T04:38:11.455Z,97.25
2019-01-31T04:43:15.464Z,97.62
2019-01-31T04:48:19.491Z,97.63
2019-01-31T04:53:23.535Z,98.21
2019-01-31T04:58:28.167Z,99.15
2019-01-31T05:03:32.169Z,99.90
2019-01-31T05:08:36.480Z,100.00
2019-01-31T05:13:40.544Z,100.00
2019-01-31T05:18:44.884Z,100.00
2019-01-31T05:23:49.219Z,100.00
2019-01-31T05:28:53.294Z,100.00
2019-01-31T05:33:57.361Z,100.00
2019-01-31T05:39:01.397Z,100.00
2019-01-31T05:44:05.501Z,100.00
2019-01-31T05:49:09.625Z,100.00
2019-01-31T05:54:14.048Z,100.00
2019-01-31T05:59:18.377Z,100.00
2019-01-31T06:04:22.479Z,100.00
2019-01-31T06:09:26.542Z,100.00
2019-01-31T06:14:30.551Z,100.00
2019-01-31T06:19:34.590Z,100.00
2019-01-31T06:24:38.727Z,100.00
2019-01-31T06:29:42.891Z,100.00
2019-01-31T06:34:47.120Z,100.00
2019-01-31T06:39:51.177Z,100.00
2019-01-31T06:44:55.588Z,100.00
2019-01-31T06:50:00.401Z,100.00
2019-01-31T06:55:05.239Z,100.00
2019-01-31T07:00:12.591Z,100.00
2019-01-31T07:05:17.361Z,100.00
2019-01-31T07:10:23.713Z,100.00
2019-01-31T07:15:27.771Z,98.74
2019-01-31T07:20:31.816Z,97.75
2019-01-31T07:25:36.015Z,97.53
2019-01-31T07:30:40.335Z,97.82
2019-01-31T07:35:44.448Z,97.91
2019-01-31T07:40:48.530Z,97.44
2019-01-31T07:45:52.713Z,96.42
2019-01-31T07:50:57.028Z,96.21
2019-01-31T07:56:01.082Z,95.87
2019-01-31T08:01:05.388Z,95.56
2019-01-31T08:06:09.417Z,95.08
2019-01-31T08:11:13.488Z,94.78
2019-01-31T08:16:17.537Z,94.15
2019-01-31T08:21:32.756Z,93.31
2019-01-31T08:26:36.840Z,92.15
2019-01-31T08:31:40.944Z,90.26
2019-01-31T08:36:44.982Z,89.87
2019-01-31T08:41:49.028Z,89.43
2019-01-31T08:46:53.039Z,88.54
2019-01-31T08:51:57.206Z,86.26
2019-01-31T08:57:05.096Z,85.86
2019-01-31T09:02:09.400Z,85.08
2019-01-31T09:07:13.520Z,84.50
2019-01-31T09:12:17.675Z,82.81
2019-01-31T09:17:21.989Z,81.10
2019-01-31T09:22:56.249Z,79.33
2019-01-31T09:28:14.859Z,77.74
2019-01-31T09:33:40.358Z,76.94
2019-01-31T09:39:27.301Z,75.59
2019-01-31T09:45:18.985Z,75.94
2019-01-31T09:51:09.960Z,78.44
2019-01-31T09:56:56.895Z,77.46
2019-01-31T10:02:36.257Z,75.64
2019-01-31T10:08:33.901Z,75.50
2019-01-31T10:13:56.261Z,75.53
2019-01-31T10:19:35.456Z,73.92
2019-01-31T10:25:29.725Z,73.46
2019-01-31T10:30:55.592Z,70.11
2019-01-31T10:36:49.568Z,65.52
2019-01-31T10:42:51.778Z,56.14
2019-01-31T10:48:23.589Z,53.07
2019-01-31T10:54:05.172Z,51.48
2019-01-31T10:59:42.604Z,51.59
2019-01-31T11:05:25.824Z,50.78
2019-01-31T11:10:51.116Z,48.74
2019-01-31T11:16:27.356Z,52.06
2019-01-31T11:22:19.109Z,50.19
2019-01-31T11:27:58.413Z,52.65
2019-01-31T11:33:22.438Z,52.96
2019-01-31T11:39:07.613Z,50.87
2019-01-31T11:44:51.083Z,57.61
2019-01-31T11:50:23.104Z,61.17
2019-01-31T11:55:50.184Z,64.96
2019-01-31T12:00:54.309Z,63.10
2019-01-31T12:05:58.473Z,64.08
2019-01-31T12:11:02.509Z,61.91
2019-01-31T12:16:06.523Z,61.78
2019-01-31T12:21:12.336Z,61.40
2019-01-31T12:26:16.612Z,61.40
2019-01-31T12:31:20.731Z,62.22
2019-01-31T12:36:24.763Z,58.17
2019-01-31T12:41:28.804Z,59.49
2019-01-31T12:46:32.941Z,57.60
2019-01-31T12:51:36.939Z,57.58
2019-01-31T12:56:41.187Z,57.43
2019-01-31T13:01:48.209Z,57.27
2019-01-31T13:06:52.265Z,58.33
2019-01-31T13:11:56.361Z,59.03
2019-01-31T13:17:00.406Z,61.23
2019-01-31T13:22:05.170Z,58.28
2019-01-31T13:27:09.231Z,58.32
2019-01-31T13:32:13.762Z,59.30
2019-01-31T13:37:17.819Z,59.69
2019-01-31T13:42:21.928Z,57.57
2019-01-31T13:47:26.065Z,58.12
2019-01-31T13:52:30.227Z,58.84
2019-01-31T13:57:34.306Z,59.93
2019-01-31T14:02:38.476Z,58.91
2019-01-31T14:07:42.483Z,58.42
2019-01-31T14:12:46.533Z,58.29
2019-01-31T14:17:50.925Z,57.86
2019-01-31T14:22:55.262Z,56.32
2019-01-31T14:27:59.366Z,58.40
2019-01-31T14:33:04.607Z,57.24
2019-01-31T14:38:08.656Z,58.47
2019-01-31T14:43:12.723Z,57.45
2019-01-31T14:48:16.902Z,59.29
2019-01-31T14:53:20.916Z,60.63
2019-01-31T14:58:24.951Z,62.51
2019-01-31T15:03:28.992Z,64.05
2019-01-31T15:08:33.164Z,65.27
2019-01-31T15:13:37.289Z,67.16
2019-01-31T15:18:41.362Z,68.22
2019-01-31T15:23:45.795Z,69.56
2019-01-31T15:28:50.230Z,70.42
2019-01-31T15:33:54.404Z,71.57
2019-01-31T15:38:58.458Z,73.69
2019-01-31T15:44:02.638Z,74.50
2019-01-31T15:49:06.679Z,75.56
2019-01-31T15:54:11.168Z,76.59
2019-01-31T15:59:15.180Z,76.69
2019-01-31T16:04:19.465Z,78.40
2019-01-31T16:09:24.232Z,80.17
2019-01-31T16:14:28.462Z,81.54
2019-01-31T16:19:32.524Z,82.17
2019-01-31T16:24:36.863Z,81.34
2019-01-31T16:29:40.932Z,83.22
2019-01-31T16:34:45.169Z,85.05
2019-01-31T16:39:49.201Z,87.04
2019-01-31T16:44:53.408Z,88.43
2019-01-31T16:49:57.481Z,89.75
2019-01-31T16:55:01.544Z,91.42
2019-01-31T17:00:07.959Z,92.82
2019-01-31T17:05:14.762Z,93.77
2019-01-31T17:10:18.945Z,94.40
2019-01-31T17:15:23.314Z,94.73
2019-01-31T17:20:30.527Z,95.11
2019-01-31T17:25:34.573Z,95.44
2019-01-31T17:30:38.607Z,95.78
2019-01-31T17:35:42.651Z,97.01
2019-01-31T17:40:46.801Z,97.46
2019-01-31T17:45:50.873Z,97.92
2019-01-31T17:50:54.895Z,98.21
2019-01-31T17:55:59.012Z,99.16
2019-01-31T18:01:03.727Z,99.95
2019-01-31T18:06:07.817Z,100.00
2019-01-31T18:11:11.884Z,100.00
2019-01-31T18:16:15.977Z,100.00
2019-01-31T18:21:20.170Z,100.00
2019-01-31T18:26:24.212Z,100.00
2019-01-31T18:31:28.237Z,100.00
2019-01-31T18:36:32.279Z,100.00
2019-01-31T18:41:36.469Z,100.00
2019-01-31T18:46:40.519Z,100.00
2019-01-31T18:51:45.014Z,100.00
2019-01-31T18:56:49.059Z,100.00
2019-01-31T19:01:53.076Z,100.00
2019-01-31T19:06:57.235Z,100.00
2019-01-31T19:12:01.279Z,100.00
2019-01-31T19:17:05.298Z,100.00
2019-01-31T19:22:09.346Z,100.00
2019-01-31T19:27:13.598Z,100.00
2019-01-31T19:32:17.761Z,100.00
2019-01-31T19:37:21.812Z,100.00
2019-01-31T19:42:26.110Z,100.00
2019-01-31T19:47:30.311Z,100.00
2019-01-31T19:52:34.912Z,100.00
2019-01-31T19:57:39.194Z,100.00
2019-01-31T20:02:43.580Z,100.00
2019-01-31T20:07:48.109Z,100.00
2019-01-31T20:12:52.450Z,100.00
2019-01-31T20:17:56.542Z,100.00
2019-01-31T20:23:00.773Z,100.00
2019-01-31T20:28:05.045Z,100.00
2019-01-31T20:33:09.124Z,100.00
2019-01-31T20:38:13.250Z,100.00
2019-01-31T20:43:17.359Z,100.00
2019-01-31T20:48:21.882Z,100.00
2019-01-31T20:53:26.343Z,100.00
2019-01-31T20:58:30.729Z,100.00
2019-01-31T21:03:34.860Z,100.00
2019-01-31T21:08:40.835Z,100.00
2019-01-31T21:13:45.636Z,100.00
2019-01-31T21:18:52.893Z,100.00
2019-01-31T21:24:01.866Z,100.00
2019-01-31T21:29:07.717Z,100.00
2019-01-31T21:34:17.047Z,100.00
2019-01-31T21:39:25.057Z,100.00
2019-01-31T21:44:30.535Z,100.00
2019-01-31T21:49:37.936Z,100.00
2019-01-31T21:54:43.760Z,100.00
2019-01-31T21:59:48.037Z,100.00
2019-01-31T22:04:52.724Z,100.00
2019-01-31T22:09:56.857Z,100.00
2019-01-31T22:15:00.967Z,100.00
2019-01-31T22:20:05.337Z,100.00
2019-01-31T22:25:11.195Z,100.00
2019-01-31T22:30:17.795Z,100.00
2019-01-31T22:35:21.907Z,100.00
2019-01-31T22:40:26.288Z,100.00
2019-01-31T22:45:30.361Z,100.00
2019-01-31T22:50:34.431Z,100.00
2019-01-31T22:55:38.891Z,100.00
2019-01-31T23:00:55.829Z,100.00
2019-01-31T23:05:59.959Z,100.00
2019-01-31T23:11:04.336Z,100.00
2019-01-31T23:16:08.471Z,100.00
2019-01-31T23:21:13.135Z,100.00
2019-01-31T23:26:17.268Z,100.00
2019-01-31T23:31:21.409Z,100.00
2019-01-31T23:36:25.450Z,100.00
2019-01-31T23:41:29.585Z,100.00
2019-01-31T23:46:33.686Z,100.00
2019-01-31T23:51:37.801Z,100.00
2019-01-31T23:56:42.496Z,100.00
